createdAt,value
2018-09-15T00:00:32.317Z,79.03
2018-09-15T00:01:32.716Z,78.55
2018-09-15T00:02:33.084Z,79.37
2018-09-15T00:03:32.739Z,79.28
2018-09-15T00:04:33.076Z,79.57
2018-09-15T00:05:32.364Z,79.75
2018-09-15T00:06:32.698Z,79.51
2018-09-15T00:07:33.050Z,79.47
2018-09-15T00:08:32.754Z,80.71
2018-09-15T00:09:33.058Z,80.33
2018-09-15T00:10:32.342Z,80.52
2018-09-15T00:11:32.659Z,81.00
2018-09-15T00:12:32.643Z,80.71
2018-09-15T00:13:33.036Z,81.48
2018-09-15T00:14:33.029Z,81.38
2018-09-15T00:15:32.392Z,80.90
2018-09-15T00:16:32.653Z,80.90
2018-09-15T00:17:33.037Z,80.81
2018-09-15T00:18:34.562Z,80.81
2018-09-15T00:19:33.029Z,80.90
2018-09-15T00:20:32.282Z,81.20
2018-09-15T00:21:32.955Z,81.38
2018-09-15T00:22:33.003Z,81.86
2018-09-15T00:23:33.021Z,82.24
2018-09-15T00:24:33.120Z,82.78
2018-09-15T00:25:33.060Z,83.16
2018-09-15T00:26:33.135Z,82.53
2018-09-15T00:27:32.956Z,82.68
2018-09-15T00:28:32.973Z,82.20
2018-09-15T00:29:32.960Z,83.26
2018-09-15T00:30:34.917Z,83.16
2018-09-15T00:31:32.965Z,82.34
2018-09-15T00:32:33.039Z,83.45
2018-09-15T00:33:33.033Z,83.73
2018-09-15T00:34:32.946Z,83.36
2018-09-15T00:35:32.961Z,83.45
2018-09-15T00:36:33.057Z,83.83
2018-09-15T00:37:33.037Z,83.83
2018-09-15T00:38:33.031Z,83.93
2018-09-15T00:39:33.035Z,84.02
2018-09-15T00:40:33.039Z,84.12
2018-09-15T00:41:33.015Z,84.50
2018-09-15T00:42:33.009Z,84.69
2018-09-15T00:43:32.949Z,84.69
2018-09-15T00:44:33.032Z,84.88
2018-09-15T00:45:33.059Z,84.88
2018-09-15T00:46:32.968Z,84.69
2018-09-15T00:47:32.982Z,84.41
2018-09-15T00:48:33.048Z,84.98
2018-09-15T00:49:32.999Z,85.46
2018-09-15T00:52:06.214Z,85.27
2018-09-15T00:53:06.601Z,84.79
2018-09-15T00:55:00.599Z,85.17
2018-09-15T00:56:00.689Z,85.46
2018-09-15T00:57:54.748Z,85.46
2018-09-15T00:58:54.782Z,85.46
2018-09-15T01:00:49.199Z,84.88
2018-09-15T01:01:49.508Z,85.36
2018-09-15T01:03:46.972Z,84.98
2018-09-15T01:04:46.922Z,85.55
2018-09-15T01:05:47.543Z,86.22
2018-09-15T01:06:46.964Z,86.22
2018-09-15T01:07:47.545Z,86.41
2018-09-15T01:08:46.573Z,86.76
2018-09-15T01:09:46.949Z,86.94
2018-09-15T01:10:47.532Z,87.33
2018-09-15T01:11:46.948Z,86.47
2018-09-15T01:12:47.512Z,86.76
2018-09-15T01:13:47.504Z,86.57
2018-09-15T01:14:47.553Z,87.33
2018-09-15T01:15:47.528Z,86.94
2018-09-15T01:16:47.531Z,87.43
2018-09-15T01:17:47.525Z,87.23
2018-09-15T01:18:47.578Z,86.94
2018-09-15T01:19:47.517Z,86.85
2018-09-15T01:20:47.536Z,87.04
2018-09-15T01:21:47.571Z,87.90
2018-09-15T01:22:47.501Z,87.81
2018-09-15T01:23:47.554Z,87.52
2018-09-15T01:24:47.576Z,87.90
2018-09-15T01:25:47.527Z,88.00
2018-09-15T01:26:48.219Z,88.09
2018-09-15T01:27:47.554Z,87.23
2018-09-15T01:28:47.530Z,87.81
2018-09-15T01:29:47.594Z,87.62
2018-09-15T01:30:47.493Z,87.52
2018-09-15T01:31:47.576Z,88.09
2018-09-15T01:32:47.235Z,88.57
2018-09-15T01:33:49.128Z,88.00
2018-09-15T01:34:47.354Z,88.86
2018-09-15T01:35:49.308Z,88.19
2018-09-15T01:36:46.956Z,88.29
2018-09-15T01:37:47.436Z,88.09
2018-09-15T01:38:49.115Z,88.48
2018-09-15T01:39:47.363Z,88.29
2018-09-15T01:40:47.354Z,88.19
2018-09-15T01:41:47.347Z,89.20
2018-09-15T01:42:47.274Z,90.34
2018-09-15T01:43:47.271Z,90.44
2018-09-15T01:44:47.240Z,90.25
2018-09-15T01:45:47.129Z,89.20
2018-09-15T01:46:47.268Z,88.81
2018-09-15T01:47:47.253Z,89.87
2018-09-15T01:48:47.186Z,89.67
2018-09-15T01:49:47.149Z,89.48
2018-09-15T01:50:47.055Z,90.06
2018-09-15T01:51:47.145Z,89.20
2018-09-15T01:52:47.123Z,88.91
2018-09-15T01:53:47.064Z,89.77
2018-09-15T01:54:47.126Z,89.48
2018-09-15T01:55:47.217Z,89.39
2018-09-15T01:56:47.123Z,89.29
2018-09-15T01:57:47.114Z,89.34
2018-09-15T01:58:47.111Z,89.96
2018-09-15T01:59:47.096Z,89.67
2018-09-15T02:00:47.117Z,89.67
2018-09-15T02:01:47.194Z,91.02
2018-09-15T02:02:47.125Z,91.02
2018-09-15T02:03:46.803Z,90.25
2018-09-15T02:04:47.126Z,90.53
2018-09-15T02:05:47.086Z,90.44
2018-09-15T02:06:47.176Z,90.25
2018-09-15T02:07:47.168Z,90.73
2018-09-15T02:08:47.132Z,90.44
2018-09-15T02:09:47.197Z,90.82
2018-09-15T02:10:47.143Z,90.82
2018-09-15T02:11:47.161Z,91.20
2018-09-15T02:12:48.896Z,90.53
2018-09-15T02:13:47.186Z,91.20
2018-09-15T02:14:47.115Z,90.34
2018-09-15T02:15:49.001Z,90.92
2018-09-15T02:16:47.133Z,91.39
2018-09-15T02:18:47.127Z,91.30
2018-09-15T02:19:47.125Z,91.20
2018-09-15T02:20:47.086Z,91.68
2018-09-15T02:21:47.066Z,93.02
2018-09-15T02:22:47.205Z,93.60
2018-09-15T02:23:47.016Z,93.69
2018-09-15T02:24:47.028Z,93.40
2018-09-15T02:25:47.016Z,93.65
2018-09-15T02:26:47.050Z,93.88
2018-09-15T02:27:46.983Z,93.02
2018-09-15T02:28:48.029Z,93.98
2018-09-15T02:29:47.006Z,93.69
2018-09-15T02:30:47.738Z,93.31
2018-09-15T02:31:47.056Z,94.12
2018-09-15T02:32:47.050Z,94.31
2018-09-15T02:33:47.060Z,94.41
2018-09-15T02:34:47.054Z,94.70
2018-09-15T02:35:47.053Z,94.02
2018-09-15T02:36:47.028Z,95.46
2018-09-15T02:37:47.096Z,94.89
2018-09-15T02:38:47.097Z,94.12
2018-09-15T02:39:47.055Z,95.07
2018-09-15T02:40:47.097Z,95.46
2018-09-15T02:41:47.076Z,95.36
2018-09-15T02:42:47.021Z,94.70
2018-09-15T02:43:47.098Z,96.42
2018-09-15T02:44:47.118Z,95.75
2018-09-15T02:45:47.039Z,95.75
2018-09-15T02:46:47.056Z,95.65
2018-09-15T02:47:47.055Z,95.46
2018-09-15T02:48:47.097Z,94.60
2018-09-15T02:49:47.070Z,94.12
2018-09-15T02:50:48.883Z,94.89
2018-09-15T02:51:47.094Z,95.36
2018-09-15T02:52:49.248Z,96.32
2018-09-15T02:53:47.093Z,96.89
2018-09-15T02:54:47.360Z,96.32
2018-09-15T02:55:47.107Z,96.80
2018-09-15T02:56:49.249Z,96.22
2018-09-15T02:57:47.048Z,96.61
2018-09-15T02:58:47.005Z,97.08
2018-09-15T02:59:47.043Z,96.99
2018-09-15T03:00:46.952Z,97.08
2018-09-15T03:01:46.990Z,96.99
2018-09-15T03:02:47.071Z,98.42
2018-09-15T03:03:47.082Z,97.85
2018-09-15T03:04:47.011Z,97.56
2018-09-15T03:05:47.048Z,97.56
2018-09-15T03:06:47.056Z,97.75
2018-09-15T03:07:47.035Z,98.66
2018-09-15T03:08:47.013Z,98.71
2018-09-15T03:09:47.030Z,97.85
2018-09-15T03:10:47.081Z,98.71
2018-09-15T03:11:47.038Z,98.90
2018-09-15T03:12:47.052Z,98.71
2018-09-15T03:13:46.988Z,98.13
2018-09-15T03:14:47.046Z,98.80
2018-09-15T03:15:47.059Z,97.85
2018-09-15T03:16:47.018Z,97.85
2018-09-15T03:17:47.059Z,98.23
2018-09-15T03:18:47.109Z,97.37
2018-09-15T03:19:47.062Z,97.08
2018-09-15T03:20:47.039Z,97.94
2018-09-15T03:21:48.897Z,98.13
2018-09-15T03:22:47.052Z,97.94
2018-09-15T03:23:47.117Z,97.75
2018-09-15T03:24:47.045Z,97.66
2018-09-15T03:25:47.020Z,98.13
2018-09-15T03:26:47.066Z,97.28
2018-09-15T03:27:47.109Z,98.33
2018-09-15T03:28:49.065Z,98.80
2018-09-15T03:29:48.914Z,98.80
2018-09-15T03:30:47.044Z,98.52
2018-09-15T03:31:47.108Z,99.71
2018-09-15T03:32:47.026Z,99.99
2018-09-15T03:33:47.058Z,99.99
2018-09-15T03:34:47.028Z,99.99
2018-09-15T03:37:19.710Z,99.99
2018-09-15T03:38:19.753Z,99.99
2018-09-15T03:40:14.429Z,99.99
2018-09-15T03:41:14.933Z,99.99
2018-09-15T03:43:09.108Z,99.99
2018-09-15T03:44:09.211Z,99.99
2018-09-15T03:46:02.955Z,99.99
2018-09-15T03:47:03.291Z,99.99
2018-09-15T03:48:58.278Z,99.99
2018-09-15T03:49:58.417Z,99.99
2018-09-15T03:51:52.328Z,99.99
2018-09-15T03:52:53.070Z,99.99
2018-09-15T03:54:47.567Z,99.99
2018-09-15T03:55:47.744Z,99.99
2018-09-15T03:57:41.602Z,99.99
2018-09-15T03:58:42.357Z,99.99
2018-09-15T04:00:36.598Z,99.99
2018-09-15T04:01:36.680Z,99.99
2018-09-15T04:03:30.877Z,99.99
2018-09-15T04:04:31.285Z,99.99
2018-09-15T04:06:25.845Z,99.99
2018-09-15T04:07:26.012Z,99.99
2018-09-15T04:09:20.581Z,99.99
2018-09-15T04:10:20.168Z,99.99
2018-09-15T04:12:14.714Z,99.99
2018-09-15T04:13:14.746Z,99.99
2018-09-15T04:15:08.963Z,99.99
2018-09-15T04:16:09.341Z,99.99
2018-09-15T04:18:03.455Z,99.99
2018-09-15T04:19:03.487Z,99.99
2018-09-15T04:20:57.437Z,99.99
2018-09-15T04:21:57.717Z,99.99
2018-09-15T04:23:52.758Z,99.99
2018-09-15T04:24:52.882Z,99.99
2018-09-15T04:26:46.377Z,99.99
2018-09-15T04:27:46.553Z,99.99
2018-09-15T04:29:41.141Z,99.99
2018-09-15T04:30:41.234Z,99.99
2018-09-15T04:32:35.601Z,99.99
2018-09-15T04:33:35.928Z,99.99
2018-09-15T04:35:30.836Z,99.99
2018-09-15T04:36:31.075Z,99.99
2018-09-15T04:38:24.791Z,99.99
2018-09-15T04:39:25.199Z,99.99
2018-09-15T04:40:25.135Z,99.99
2018-09-15T04:41:25.100Z,99.99
2018-09-15T04:42:26.998Z,99.99
2018-09-15T04:43:25.176Z,99.99
2018-09-15T04:44:25.157Z,99.99
2018-09-15T04:45:25.221Z,99.99
2018-09-15T04:46:25.195Z,99.99
2018-09-15T04:47:25.169Z,99.99
2018-09-15T04:48:25.214Z,99.99
2018-09-15T04:49:27.371Z,99.99
2018-09-15T04:50:27.241Z,99.99
2018-09-15T04:51:25.179Z,99.99
2018-09-15T04:52:25.212Z,99.99
2018-09-15T04:53:25.147Z,99.99
2018-09-15T04:54:25.204Z,99.99
2018-09-15T04:55:25.206Z,99.99
2018-09-15T04:56:25.192Z,99.99
2018-09-15T04:57:25.145Z,99.99
2018-09-15T04:58:25.195Z,99.99
2018-09-15T04:59:25.239Z,99.99
2018-09-15T05:00:25.138Z,99.99
2018-09-15T05:01:25.174Z,99.99
2018-09-15T05:02:25.169Z,99.99
2018-09-15T05:03:25.165Z,99.99
2018-09-15T05:04:25.208Z,99.99
2018-09-15T05:05:25.207Z,99.99
2018-09-15T05:06:25.197Z,99.99
2018-09-15T05:07:25.386Z,99.99
2018-09-15T05:08:25.211Z,99.99
2018-09-15T05:09:25.206Z,99.99
2018-09-15T05:10:25.198Z,99.99
2018-09-15T05:11:25.196Z,99.99
2018-09-15T05:12:25.201Z,99.99
2018-09-15T05:13:25.213Z,99.99
2018-09-15T05:14:25.178Z,99.99
2018-09-15T05:15:25.184Z,99.99
2018-09-15T05:16:25.148Z,99.99
2018-09-15T05:17:25.376Z,99.99
2018-09-15T05:18:25.218Z,99.99
2018-09-15T05:19:27.052Z,99.99
2018-09-15T05:20:25.202Z,99.99
2018-09-15T05:21:25.212Z,99.99
2018-09-15T05:22:26.995Z,99.99
2018-09-15T05:23:26.999Z,99.99
2018-09-15T05:24:25.232Z,99.99
2018-09-15T05:25:25.227Z,99.99
2018-09-15T05:26:25.215Z,99.99
2018-09-15T05:27:25.194Z,99.99
2018-09-15T05:28:25.208Z,99.99
2018-09-15T05:29:25.227Z,99.99
2018-09-15T05:30:25.232Z,99.99
2018-09-15T05:31:25.173Z,99.99
2018-09-15T05:32:24.921Z,99.99
2018-09-15T05:33:24.872Z,99.99
2018-09-15T05:34:24.886Z,99.99
2018-09-15T05:35:24.968Z,99.99
2018-09-15T05:36:24.893Z,99.99
2018-09-15T05:37:24.843Z,99.99
2018-09-15T05:38:24.957Z,99.99
2018-09-15T05:39:24.840Z,99.99
2018-09-15T05:40:24.745Z,99.99
2018-09-15T05:41:24.786Z,99.99
2018-09-15T05:42:24.735Z,99.99
2018-09-15T05:43:24.849Z,99.99
2018-09-15T05:44:24.699Z,99.99
2018-09-15T05:45:25.052Z,99.99
2018-09-15T05:46:24.793Z,99.99
2018-09-15T05:47:24.846Z,99.99
2018-09-15T05:48:24.830Z,99.99
2018-09-15T05:49:24.987Z,99.99
2018-09-15T05:50:24.857Z,99.99
2018-09-15T05:51:24.917Z,99.99
2018-09-15T05:52:24.885Z,99.99
2018-09-15T05:53:24.805Z,99.99
2018-09-15T05:54:24.814Z,99.99
2018-09-15T05:55:24.787Z,99.99
2018-09-15T05:56:24.861Z,99.99
2018-09-15T05:57:24.460Z,99.99
2018-09-15T05:58:24.887Z,99.99
2018-09-15T05:59:24.888Z,99.99
2018-09-15T06:00:24.805Z,99.99
2018-09-15T06:01:24.872Z,99.99
2018-09-15T06:02:26.717Z,99.99
2018-09-15T06:03:24.856Z,99.99
2018-09-15T06:04:24.829Z,99.99
2018-09-15T06:05:30.703Z,99.99
2018-09-15T06:06:26.234Z,99.99
2018-09-15T06:07:24.817Z,99.99
2018-09-15T06:09:00.109Z,99.99
2018-09-15T06:09:24.072Z,99.99
2018-09-15T06:10:43.124Z,99.99
2018-09-15T06:12:23.197Z,99.99
2018-09-15T06:13:28.976Z,99.99
2018-09-15T06:14:23.001Z,99.99
2018-09-15T06:15:22.962Z,99.99
2018-09-15T06:16:22.951Z,99.99
2018-09-15T06:17:22.992Z,99.99
2018-09-15T06:18:22.944Z,99.99
2018-09-15T06:19:22.997Z,99.99
2018-09-15T06:20:22.973Z,99.99
2018-09-15T06:21:22.978Z,99.99
2018-09-15T06:22:22.985Z,99.99
2018-09-15T06:23:22.931Z,99.99
2018-09-15T06:24:22.992Z,99.99
2018-09-15T06:25:22.936Z,99.99
2018-09-15T06:26:24.756Z,99.99
2018-09-15T06:27:22.977Z,99.99
2018-09-15T06:28:22.963Z,99.99
2018-09-15T06:29:23.003Z,99.99
2018-09-15T06:30:23.040Z,99.99
2018-09-15T06:32:56.089Z,99.99
2018-09-15T06:33:55.944Z,99.99
2018-09-15T06:35:52.337Z,99.99
2018-09-15T06:36:52.564Z,99.99
2018-09-15T06:37:53.556Z,99.99
2018-09-15T06:38:53.061Z,99.99
2018-09-15T06:39:53.029Z,99.99
2018-09-15T06:40:52.687Z,99.99
2018-09-15T06:41:52.684Z,99.99
2018-09-15T06:42:53.283Z,99.99
2018-09-15T06:43:52.723Z,99.99
2018-09-15T06:44:53.526Z,99.99
2018-09-15T06:45:52.836Z,99.99
2018-09-15T06:46:52.691Z,99.99
2018-09-15T06:47:52.934Z,99.99
2018-09-15T06:48:53.036Z,99.99
2018-09-15T06:49:53.237Z,99.99
2018-09-15T06:50:52.585Z,99.99
2018-09-15T06:51:52.938Z,99.99
2018-09-15T06:52:52.951Z,99.99
2018-09-15T06:53:52.926Z,99.99
2018-09-15T06:54:52.943Z,99.99
2018-09-15T06:55:52.978Z,99.99
2018-09-15T06:56:52.952Z,99.99
2018-09-15T06:57:52.949Z,99.99
2018-09-15T06:58:52.939Z,99.99
2018-09-15T06:59:52.979Z,99.99
2018-09-15T07:00:53.028Z,99.99
2018-09-15T07:01:52.989Z,99.99
2018-09-15T07:02:53.034Z,99.99
2018-09-15T07:03:52.994Z,99.99
2018-09-15T07:04:52.957Z,99.99
2018-09-15T07:05:52.544Z,99.99
2018-09-15T07:06:53.059Z,99.99
2018-09-15T07:07:52.961Z,99.99
2018-09-15T07:08:53.016Z,99.99
2018-09-15T07:09:52.996Z,99.99
2018-09-15T07:10:52.996Z,99.99
2018-09-15T07:11:54.821Z,99.99
2018-09-15T07:12:52.980Z,99.99
2018-09-15T07:13:53.038Z,99.99
2018-09-15T07:14:53.008Z,99.99
2018-09-15T07:15:52.989Z,99.99
2018-09-15T07:16:53.042Z,99.99
2018-09-15T07:17:53.025Z,99.99
2018-09-15T07:18:53.026Z,99.99
2018-09-15T07:19:53.042Z,99.99
2018-09-15T07:20:53.043Z,99.99
2018-09-15T07:21:53.043Z,99.99
2018-09-15T07:22:52.978Z,99.99
2018-09-15T07:23:52.985Z,99.99
2018-09-15T07:24:52.999Z,99.99
2018-09-15T07:25:52.961Z,99.99
2018-09-15T07:26:52.986Z,99.99
2018-09-15T07:27:52.939Z,99.99
2018-09-15T07:28:52.925Z,99.99
2018-09-15T07:29:52.968Z,99.99
2018-09-15T07:30:52.979Z,99.99
2018-09-15T07:31:53.153Z,99.99
2018-09-15T07:32:53.000Z,99.99
2018-09-15T07:33:53.033Z,99.99
2018-09-15T07:34:53.071Z,99.99
2018-09-15T07:35:53.017Z,99.99
2018-09-15T07:36:53.017Z,99.99
2018-09-15T07:37:52.994Z,99.99
2018-09-15T07:38:52.986Z,99.99
2018-09-15T07:39:53.051Z,99.99
2018-09-15T07:40:52.983Z,99.99
2018-09-15T07:41:53.038Z,99.99
2018-09-15T07:42:53.013Z,99.99
2018-09-15T07:43:54.839Z,99.99
2018-09-15T07:44:53.172Z,99.99
2018-09-15T07:45:52.988Z,99.99
2018-09-15T07:46:52.980Z,99.99
2018-09-15T07:47:52.992Z,99.99
2018-09-15T07:48:53.000Z,99.99
2018-09-15T07:49:53.052Z,99.99
2018-09-15T07:50:52.977Z,99.99
2018-09-15T07:51:53.033Z,99.99
2018-09-15T07:52:53.041Z,99.99
2018-09-15T07:53:53.035Z,99.99
2018-09-15T07:54:52.989Z,99.99
2018-09-15T07:55:52.965Z,99.99
2018-09-15T07:56:53.003Z,99.99
2018-09-15T07:57:53.093Z,99.99
2018-09-15T07:58:53.046Z,99.99
2018-09-15T07:59:52.999Z,99.99
2018-09-15T08:00:53.069Z,99.99
2018-09-15T08:01:52.475Z,99.99
2018-09-15T08:02:52.856Z,99.99
2018-09-15T08:03:52.779Z,99.99
2018-09-15T08:04:52.539Z,99.99
2018-09-15T08:05:52.545Z,99.99
2018-09-15T08:06:52.539Z,99.99
2018-09-15T08:07:52.553Z,99.99
2018-09-15T08:08:52.645Z,99.99
2018-09-15T08:09:52.657Z,99.99
2018-09-15T08:10:52.761Z,99.99
2018-09-15T08:11:52.641Z,99.99
2018-09-15T08:12:52.671Z,99.99
2018-09-15T08:13:52.611Z,99.87
2018-09-15T08:14:52.740Z,99.99
2018-09-15T08:15:52.644Z,99.99
2018-09-15T08:16:52.965Z,99.99
2018-09-15T08:17:52.753Z,99.99
2018-09-15T08:18:52.317Z,99.99
2018-09-15T08:19:52.699Z,99.99
2018-09-15T08:20:52.729Z,99.99
2018-09-15T08:21:52.653Z,99.99
2018-09-15T08:22:52.721Z,99.99
2018-09-15T08:23:52.735Z,99.34
2018-09-15T08:24:52.644Z,99.24
2018-09-15T08:25:52.757Z,99.91
2018-09-15T08:26:52.746Z,99.82
2018-09-15T08:27:52.719Z,99.73
2018-09-15T08:28:52.829Z,99.73
2018-09-15T08:29:52.377Z,98.77
2018-09-15T08:30:52.797Z,99.53
2018-09-15T08:31:52.748Z,99.53
2018-09-15T08:32:52.756Z,98.86
2018-09-15T08:33:53.094Z,98.91
2018-09-15T08:34:52.818Z,98.67
2018-09-15T08:35:52.727Z,98.33
2018-09-15T08:36:52.716Z,98.72
2018-09-15T08:37:52.725Z,98.38
2018-09-15T08:38:52.645Z,98.38
2018-09-15T08:39:52.688Z,98.10
2018-09-15T08:40:52.692Z,98.33
2018-09-15T08:41:52.555Z,98.33
2018-09-15T08:42:52.507Z,97.47
2018-09-15T08:43:52.571Z,97.09
2018-09-15T08:44:54.420Z,97.09
2018-09-15T08:45:52.518Z,97.47
2018-09-15T08:46:52.502Z,97.66
2018-09-15T08:47:52.557Z,96.32
2018-09-15T08:48:52.542Z,95.94
2018-09-15T08:49:52.580Z,96.13
2018-09-15T08:50:52.484Z,95.75
2018-09-15T08:53:25.611Z,96.42
2018-09-15T08:54:25.887Z,95.26
2018-09-15T08:56:19.563Z,95.94
2018-09-15T08:57:19.877Z,95.75
2018-09-15T08:59:14.427Z,95.84
2018-09-15T09:00:16.665Z,95.26
2018-09-15T09:02:08.337Z,95.60
2018-09-15T09:03:08.817Z,95.60
2018-09-15T09:05:03.597Z,94.98
2018-09-15T09:06:29.416Z,95.75
2018-09-15T09:07:03.937Z,96.42
2018-09-15T09:08:03.941Z,96.42
2018-09-15T09:09:03.932Z,95.94
2018-09-15T09:10:03.923Z,96.13
2018-09-15T09:11:03.957Z,96.22
2018-09-15T09:13:03.967Z,96.61
2018-09-15T09:14:03.901Z,96.89
2018-09-15T09:15:03.926Z,97.09
2018-09-15T09:16:04.453Z,97.28
2018-09-15T09:17:03.601Z,97.28
2018-09-15T09:18:04.068Z,97.38
2018-09-15T09:19:04.464Z,96.99
2018-09-15T09:20:03.483Z,95.84
2018-09-15T09:21:04.500Z,95.94
2018-09-15T09:22:04.121Z,95.31
2018-09-15T09:23:04.129Z,95.12
2018-09-15T09:24:03.683Z,94.74
2018-09-15T09:25:03.930Z,94.54
2018-09-15T09:26:04.068Z,93.54
2018-09-15T09:27:03.936Z,93.82
2018-09-15T09:28:04.165Z,93.34
2018-09-15T09:29:03.685Z,92.77
2018-09-15T09:30:04.463Z,92.57
2018-09-15T09:31:03.361Z,92.67
2018-09-15T09:32:03.904Z,92.48
2018-09-15T09:33:03.971Z,92.77
2018-09-15T09:34:03.949Z,92.19
2018-09-15T09:35:26.347Z,92.38
2018-09-15T09:36:04.579Z,92.38
2018-09-15T09:37:04.250Z,92.38
2018-09-15T09:38:03.733Z,91.85
2018-09-15T09:39:03.948Z,90.89
2018-09-15T09:40:03.929Z,90.03
2018-09-15T09:41:06.004Z,89.83
2018-09-15T09:42:03.946Z,90.22
2018-09-15T09:43:03.948Z,90.08
2018-09-15T09:44:03.944Z,90.60
2018-09-15T09:46:50.388Z,89.36
2018-09-15T09:47:49.105Z,88.68
2018-09-15T09:48:50.674Z,88.34
2018-09-15T09:49:51.315Z,88.10
2018-09-15T09:50:50.167Z,88.06
2018-09-15T09:51:51.199Z,87.48
2018-09-15T09:52:50.700Z,86.90
2018-09-15T09:53:51.199Z,87.19
2018-09-15T09:54:49.934Z,88.24
2018-09-15T09:55:50.265Z,87.67
2018-09-15T09:56:50.744Z,87.19
2018-09-15T09:57:50.249Z,87.96
2018-09-15T09:58:50.835Z,87.57
2018-09-15T09:59:49.900Z,87.19
2018-09-15T10:00:50.074Z,87.09
2018-09-15T10:01:50.591Z,86.22
2018-09-15T10:02:50.155Z,85.78
2018-09-15T10:03:50.645Z,84.83
2018-09-15T10:04:50.337Z,83.58
2018-09-15T10:05:50.705Z,83.42
2018-09-15T10:06:50.165Z,82.46
2018-09-15T10:07:50.127Z,82.08
2018-09-15T10:08:50.656Z,82.04
2018-09-15T10:09:49.937Z,81.46
2018-09-15T10:10:50.199Z,81.75
2018-09-15T10:11:50.713Z,81.94
2018-09-15T10:12:51.032Z,82.42
2018-09-15T10:13:50.725Z,81.84
2018-09-15T10:14:50.244Z,82.71
2018-09-15T10:16:04.433Z,82.14
2018-09-15T10:16:50.170Z,82.23
2018-09-15T10:17:51.862Z,82.23
2018-09-15T10:18:50.870Z,81.56
2018-09-15T10:19:50.709Z,81.27
2018-09-15T10:20:50.733Z,81.17
2018-09-15T10:21:50.722Z,81.71
2018-09-15T10:22:52.675Z,82.38
2018-09-15T10:23:51.431Z,82.67
2018-09-15T10:24:50.944Z,82.09
2018-09-15T10:25:51.225Z,82.09
2018-09-15T10:26:50.718Z,82.38
2018-09-15T10:27:50.645Z,81.52
2018-09-15T10:28:50.613Z,81.81
2018-09-15T10:29:50.654Z,81.81
2018-09-15T10:30:50.654Z,82.32
2018-09-15T10:31:50.633Z,82.57
2018-09-15T10:32:50.636Z,82.32
2018-09-15T10:33:50.681Z,82.32
2018-09-15T10:34:50.171Z,82.96
2018-09-15T10:35:51.288Z,82.04
2018-09-15T10:36:52.995Z,81.17
2018-09-15T10:37:50.436Z,80.69
2018-09-15T10:38:50.645Z,80.35
2018-09-15T10:39:50.675Z,79.96
2018-09-15T10:40:50.180Z,79.86
2018-09-15T10:41:52.679Z,80.11
2018-09-15T10:42:51.656Z,80.35
2018-09-15T10:43:50.707Z,80.30
2018-09-15T10:44:50.669Z,80.69
2018-09-15T10:45:52.741Z,80.60
2018-09-15T10:46:50.724Z,80.02
2018-09-15T10:47:52.476Z,80.11
2018-09-15T10:48:50.679Z,79.53
2018-09-15T10:49:50.728Z,79.69
2018-09-15T10:51:11.724Z,79.60
2018-09-15T10:51:50.709Z,79.63
2018-09-15T10:52:50.714Z,78.67
2018-09-15T10:53:50.672Z,78.71
2018-09-15T10:54:53.003Z,78.13
2018-09-15T10:55:50.619Z,77.94
2018-09-15T10:56:53.365Z,78.03
2018-09-15T10:57:50.141Z,78.33
2018-09-15T10:58:51.342Z,78.03
2018-09-15T10:59:50.977Z,78.33
2018-09-15T11:00:50.982Z,78.03
2018-09-15T11:01:52.963Z,77.94
2018-09-15T11:02:52.136Z,77.33
2018-09-15T11:03:50.693Z,77.46
2018-09-15T11:04:50.682Z,78.09
2018-09-15T11:05:50.713Z,78.00
2018-09-15T11:06:50.941Z,78.38
2018-09-15T11:07:50.460Z,78.09
2018-09-15T11:08:50.893Z,77.71
2018-09-15T11:09:52.897Z,77.75
